sensor_id;sensor_type;location;lat;lon;timestamp;P1;durP1;ratioP1;P2;durP2;ratioP2
44110;SDS011;29774;52.664;5.074;2024-02-21T00:01:23;12.55;;;2.90;;
44110;SDS011;29774;52.664;5.074;2024-02-21T00:03:48;7.68;;;2.10;;
44110;SDS011;29774;52.664;5.074;2024-02-21T00:06:14;13.02;;;2.90;;
44110;SDS011;29774;52.664;5.074;2024-02-21T00:08:40;8.77;;;2.42;;
44110;SDS011;29774;52.664;5.074;2024-02-21T00:11:05;11.30;;;2.78;;
44110;SDS011;29774;52.664;5.074;2024-02-21T00:13:31;11.02;;;2.10;;
44110;SDS011;29774;52.664;5.074;2024-02-21T00:15:57;11.25;;;2.33;;
44110;SDS011;29774;52.664;5.074;2024-02-21T00:18:22;9.57;;;2.47;;
44110;SDS011;29774;52.664;5.074;2024-02-21T00:20:48;11.30;;;2.58;;
44110;SDS011;29774;52.664;5.074;2024-02-21T00:23:14;13.60;;;2.92;;
44110;SDS011;29774;52.664;5.074;2024-02-21T00:25:39;11.45;;;2.45;;
44110;SDS011;29774;52.664;5.074;2024-02-21T00:28:05;12.07;;;2.78;;
44110;SDS011;29774;52.664;5.074;2024-02-21T00:30:31;12.43;;;2.70;;
44110;SDS011;29774;52.664;5.074;2024-02-21T00:32:57;11.40;;;2.30;;
44110;SDS011;29774;52.664;5.074;2024-02-21T00:35:23;17.65;;;4.38;;
44110;SDS011;29774;52.664;5.074;2024-02-21T00:37:50;11.38;;;2.60;;
44110;SDS011;29774;52.664;5.074;2024-02-21T00:40:17;13.98;;;2.75;;
44110;SDS011;29774;52.664;5.074;2024-02-21T00:42:45;12.23;;;2.83;;
44110;SDS011;29774;52.664;5.074;2024-02-21T00:45:11;13.38;;;3.47;;
44110;SDS011;29774;52.664;5.074;2024-02-21T00:47:37;12.02;;;2.75;;
44110;SDS011;29774;52.664;5.074;2024-02-21T00:50:03;15.55;;;2.88;;
44110;SDS011;29774;52.664;5.074;2024-02-21T00:52:28;15.23;;;2.53;;
44110;SDS011;29774;52.664;5.074;2024-02-21T00:54:54;13.52;;;3.08;;
44110;SDS011;29774;52.664;5.074;2024-02-21T00:57:20;19.80;;;3.50;;
44110;SDS011;29774;52.664;5.074;2024-02-21T00:59:45;10.38;;;2.30;;
44110;SDS011;29774;52.664;5.074;2024-02-21T01:02:11;8.70;;;3.08;;
44110;SDS011;29774;52.664;5.074;2024-02-21T01:04:36;9.15;;;2.33;;
44110;SDS011;29774;52.664;5.074;2024-02-21T01:07:02;7.60;;;2.40;;
44110;SDS011;29774;52.664;5.074;2024-02-21T01:09:28;11.13;;;2.67;;
44110;SDS011;29774;52.664;5.074;2024-02-21T01:11:53;14.15;;;2.97;;
44110;SDS011;29774;52.664;5.074;2024-02-21T01:14:19;15.60;;;2.90;;
44110;SDS011;29774;52.664;5.074;2024-02-21T01:16:44;10.85;;;2.97;;
44110;SDS011;29774;52.664;5.074;2024-02-21T01:19:10;7.80;;;2.90;;
44110;SDS011;29774;52.664;5.074;2024-02-21T01:21:36;11.15;;;2.58;;
44110;SDS011;29774;52.664;5.074;2024-02-21T01:24:01;18.75;;;3.60;;
44110;SDS011;29774;52.664;5.074;2024-02-21T01:26:27;6.65;;;2.15;;
44110;SDS011;29774;52.664;5.074;2024-02-21T01:28:52;21.40;;;3.63;;
44110;SDS011;29774;52.664;5.074;2024-02-21T01:31:18;13.25;;;2.55;;
44110;SDS011;29774;52.664;5.074;2024-02-21T01:33:44;19.88;;;3.45;;
44110;SDS011;29774;52.664;5.074;2024-02-21T01:36:09;12.68;;;2.70;;
44110;SDS011;29774;52.664;5.074;2024-02-21T01:38:35;22.42;;;3.55;;
44110;SDS011;29774;52.664;5.074;2024-02-21T01:41:01;11.60;;;2.28;;
44110;SDS011;29774;52.664;5.074;2024-02-21T01:43:26;12.80;;;2.95;;
44110;SDS011;29774;52.664;5.074;2024-02-21T01:45:53;10.90;;;2.00;;
44110;SDS011;29774;52.664;5.074;2024-02-21T01:48:20;8.75;;;2.55;;
44110;SDS011;29774;52.664;5.074;2024-02-21T01:50:48;12.40;;;2.20;;
44110;SDS011;29774;52.664;5.074;2024-02-21T01:53:16;11.07;;;2.65;;
44110;SDS011;29774;52.664;5.074;2024-02-21T01:55:47;15.18;;;3.15;;
44110;SDS011;29774;52.664;5.074;2024-02-21T01:58:13;12.38;;;2.90;;
44110;SDS011;29774;52.664;5.074;2024-02-21T02:00:43;12.05;;;2.80;;
44110;SDS011;29774;52.664;5.074;2024-02-21T02:03:10;16.33;;;2.58;;
44110;SDS011;29774;52.664;5.074;2024-02-21T02:05:48;7.13;;;2.05;;
44110;SDS011;29774;52.664;5.074;2024-02-21T02:08:23;12.98;;;2.38;;
44110;SDS011;29774;52.664;5.074;2024-02-21T02:10:49;12.30;;;2.88;;
44110;SDS011;29774;52.664;5.074;2024-02-21T02:13:15;10.25;;;2.78;;
44110;SDS011;29774;52.664;5.074;2024-02-21T02:15:44;16.65;;;2.85;;
44110;SDS011;29774;52.664;5.074;2024-02-21T02:18:11;6.40;;;1.88;;
44110;SDS011;29774;52.664;5.074;2024-02-21T02:20:37;5.00;;;1.70;;
44110;SDS011;29774;52.664;5.074;2024-02-21T02:23:07;12.85;;;2.58;;
44110;SDS011;29774;52.664;5.074;2024-02-21T02:25:38;10.93;;;2.50;;
44110;SDS011;29774;52.664;5.074;2024-02-21T02:28:08;16.60;;;2.78;;
44110;SDS011;29774;52.664;5.074;2024-02-21T02:30:36;13.65;;;2.60;;
44110;SDS011;29774;52.664;5.074;2024-02-21T02:33:02;10.75;;;2.80;;
44110;SDS011;29774;52.664;5.074;2024-02-21T02:35:29;5.97;;;2.17;;
44110;SDS011;29774;52.664;5.074;2024-02-21T02:37:54;9.00;;;2.03;;
44110;SDS011;29774;52.664;5.074;2024-02-21T02:40:20;9.85;;;2.55;;
44110;SDS011;29774;52.664;5.074;2024-02-21T02:42:46;14.23;;;2.85;;
44110;SDS011;29774;52.664;5.074;2024-02-21T02:45:13;9.27;;;1.98;;
44110;SDS011;29774;52.664;5.074;2024-02-21T02:47:44;10.32;;;2.72;;
44110;SDS011;29774;52.664;5.074;2024-02-21T02:50:11;11.30;;;2.35;;
44110;SDS011;29774;52.664;5.074;2024-02-21T02:52:36;6.63;;;2.00;;
44110;SDS011;29774;52.664;5.074;2024-02-21T02:55:02;14.02;;;2.70;;
44110;SDS011;29774;52.664;5.074;2024-02-21T02:57:29;11.63;;;2.63;;
44110;SDS011;29774;52.664;5.074;2024-02-21T02:59:54;10.10;;;2.22;;
44110;SDS011;29774;52.664;5.074;2024-02-21T03:02:20;10.13;;;2.30;;
44110;SDS011;29774;52.664;5.074;2024-02-21T03:04:46;11.68;;;2.40;;
44110;SDS011;29774;52.664;5.074;2024-02-21T03:07:11;11.80;;;2.28;;
44110;SDS011;29774;52.664;5.074;2024-02-21T03:09:37;14.10;;;2.45;;
44110;SDS011;29774;52.664;5.074;2024-02-21T03:12:03;13.02;;;2.22;;
44110;SDS011;29774;52.664;5.074;2024-02-21T03:14:31;13.50;;;3.05;;
44110;SDS011;29774;52.664;5.074;2024-02-21T03:17:00;11.23;;;2.55;;
44110;SDS011;29774;52.664;5.074;2024-02-21T03:19:26;10.68;;;2.25;;
44110;SDS011;29774;52.664;5.074;2024-02-21T03:21:52;17.40;;;3.70;;
44110;SDS011;29774;52.664;5.074;2024-02-21T03:24:20;9.38;;;2.20;;
44110;SDS011;29774;52.664;5.074;2024-02-21T03:26:46;12.20;;;2.30;;
44110;SDS011;29774;52.664;5.074;2024-02-21T03:29:13;11.52;;;3.42;;
44110;SDS011;29774;52.664;5.074;2024-02-21T03:31:40;10.15;;;2.53;;
44110;SDS011;29774;52.664;5.074;2024-02-21T03:34:05;14.75;;;3.22;;
44110;SDS011;29774;52.664;5.074;2024-02-21T03:36:31;12.07;;;3.15;;
44110;SDS011;29774;52.664;5.074;2024-02-21T03:38:57;13.55;;;2.88;;
44110;SDS011;29774;52.664;5.074;2024-02-21T03:41:22;11.50;;;2.67;;
44110;SDS011;29774;52.664;5.074;2024-02-21T03:43:48;11.18;;;2.30;;
44110;SDS011;29774;52.664;5.074;2024-02-21T03:46:14;6.50;;;2.28;;
44110;SDS011;29774;52.664;5.074;2024-02-21T03:48:40;11.00;;;2.00;;
44110;SDS011;29774;52.664;5.074;2024-02-21T03:51:05;8.52;;;2.35;;
44110;SDS011;29774;52.664;5.074;2024-02-21T03:53:31;11.18;;;1.95;;
44110;SDS011;29774;52.664;5.074;2024-02-21T03:55:57;12.77;;;3.03;;
44110;SDS011;29774;52.664;5.074;2024-02-21T03:58:27;14.30;;;2.25;;
44110;SDS011;29774;52.664;5.074;2024-02-21T04:00:53;18.58;;;3.95;;
44110;SDS011;29774;52.664;5.074;2024-02-21T04:03:19;16.48;;;2.67;;
44110;SDS011;29774;52.664;5.074;2024-02-21T04:05:45;11.57;;;2.17;;
44110;SDS011;29774;52.664;5.074;2024-02-21T04:08:11;11.52;;;2.38;;
44110;SDS011;29774;52.664;5.074;2024-02-21T04:10:36;8.25;;;2.22;;
44110;SDS011;29774;52.664;5.074;2024-02-21T04:13:02;13.80;;;3.10;;
44110;SDS011;29774;52.664;5.074;2024-02-21T04:15:28;17.30;;;2.85;;
44110;SDS011;29774;52.664;5.074;2024-02-21T04:17:54;15.27;;;3.40;;
44110;SDS011;29774;52.664;5.074;2024-02-21T04:20:20;16.70;;;3.15;;
44110;SDS011;29774;52.664;5.074;2024-02-21T04:22:45;13.77;;;3.30;;
44110;SDS011;29774;52.664;5.074;2024-02-21T04:25:11;12.38;;;3.45;;
44110;SDS011;29774;52.664;5.074;2024-02-21T04:27:40;20.80;;;4.53;;
44110;SDS011;29774;52.664;5.074;2024-02-21T04:30:07;17.83;;;3.10;;
44110;SDS011;29774;52.664;5.074;2024-02-21T04:32:34;16.30;;;3.35;;
44110;SDS011;29774;52.664;5.074;2024-02-21T04:35:00;16.25;;;3.70;;
44110;SDS011;29774;52.664;5.074;2024-02-21T04:37:25;17.98;;;3.95;;
44110;SDS011;29774;52.664;5.074;2024-02-21T04:39:51;22.48;;;3.75;;
44110;SDS011;29774;52.664;5.074;2024-02-21T04:42:17;13.88;;;3.47;;
44110;SDS011;29774;52.664;5.074;2024-02-21T04:44:42;12.30;;;4.03;;
44110;SDS011;29774;52.664;5.074;2024-02-21T04:47:08;21.70;;;3.30;;
44110;SDS011;29774;52.664;5.074;2024-02-21T04:49:34;10.23;;;2.38;;
44110;SDS011;29774;52.664;5.074;2024-02-21T04:52:00;13.63;;;2.92;;
44110;SDS011;29774;52.664;5.074;2024-02-21T04:54:25;17.45;;;3.60;;
44110;SDS011;29774;52.664;5.074;2024-02-21T04:56:51;19.98;;;3.42;;
44110;SDS011;29774;52.664;5.074;2024-02-21T04:59:17;15.50;;;2.63;;
44110;SDS011;29774;52.664;5.074;2024-02-21T05:01:43;18.17;;;3.58;;
44110;SDS011;29774;52.664;5.074;2024-02-21T05:04:09;19.45;;;4.18;;
44110;SDS011;29774;52.664;5.074;2024-02-21T05:06:38;17.48;;;3.55;;
44110;SDS011;29774;52.664;5.074;2024-02-21T05:09:07;27.77;;;4.50;;
44110;SDS011;29774;52.664;5.074;2024-02-21T05:11:34;19.27;;;3.92;;
44110;SDS011;29774;52.664;5.074;2024-02-21T05:14:00;21.73;;;4.22;;
44110;SDS011;29774;52.664;5.074;2024-02-21T05:16:26;17.10;;;3.97;;
44110;SDS011;29774;52.664;5.074;2024-02-21T05:18:51;25.30;;;4.95;;
44110;SDS011;29774;52.664;5.074;2024-02-21T05:21:17;16.48;;;3.70;;
44110;SDS011;29774;52.664;5.074;2024-02-21T05:23:43;22.27;;;4.20;;
44110;SDS011;29774;52.664;5.074;2024-02-21T05:26:08;13.30;;;3.67;;
44110;SDS011;29774;52.664;5.074;2024-02-21T05:28:34;15.73;;;3.83;;
44110;SDS011;29774;52.664;5.074;2024-02-21T05:31:00;13.15;;;3.10;;
44110;SDS011;29774;52.664;5.074;2024-02-21T05:33:25;16.58;;;3.53;;
44110;SDS011;29774;52.664;5.074;2024-02-21T05:35:52;16.25;;;3.65;;
44110;SDS011;29774;52.664;5.074;2024-02-21T05:38:17;18.88;;;4.00;;
44110;SDS011;29774;52.664;5.074;2024-02-21T05:40:46;19.75;;;3.42;;
44110;SDS011;29774;52.664;5.074;2024-02-21T05:43:11;11.00;;;3.08;;
44110;SDS011;29774;52.664;5.074;2024-02-21T05:45:37;13.38;;;2.97;;
44110;SDS011;29774;52.664;5.074;2024-02-21T05:48:03;14.07;;;3.00;;
44110;SDS011;29774;52.664;5.074;2024-02-21T05:50:29;10.68;;;2.55;;
44110;SDS011;29774;52.664;5.074;2024-02-21T05:52:55;13.55;;;2.85;;
44110;SDS011;29774;52.664;5.074;2024-02-21T05:55:20;11.13;;;2.45;;
44110;SDS011;29774;52.664;5.074;2024-02-21T05:57:46;12.05;;;2.17;;
44110;SDS011;29774;52.664;5.074;2024-02-21T06:00:12;15.07;;;2.40;;
44110;SDS011;29774;52.664;5.074;2024-02-21T06:02:38;12.35;;;2.45;;
44110;SDS011;29774;52.664;5.074;2024-02-21T06:05:05;12.93;;;3.08;;
44110;SDS011;29774;52.664;5.074;2024-02-21T06:07:32;7.28;;;2.50;;
44110;SDS011;29774;52.664;5.074;2024-02-21T06:09:58;9.20;;;2.38;;
44110;SDS011;29774;52.664;5.074;2024-02-21T06:12:24;11.07;;;2.42;;
44110;SDS011;29774;52.664;5.074;2024-02-21T06:14:50;10.82;;;2.40;;
44110;SDS011;29774;52.664;5.074;2024-02-21T06:17:15;12.77;;;2.75;;
44110;SDS011;29774;52.664;5.074;2024-02-21T06:19:42;6.85;;;2.53;;
44110;SDS011;29774;52.664;5.074;2024-02-21T06:22:08;12.50;;;2.92;;
44110;SDS011;29774;52.664;5.074;2024-02-21T06:24:35;4.00;;;1.65;;
44110;SDS011;29774;52.664;5.074;2024-02-21T06:27:01;9.00;;;2.25;;
44110;SDS011;29774;52.664;5.074;2024-02-21T06:29:28;10.63;;;3.15;;
44110;SDS011;29774;52.664;5.074;2024-02-21T06:31:53;10.95;;;2.45;;
44110;SDS011;29774;52.664;5.074;2024-02-21T06:34:19;9.68;;;2.38;;
44110;SDS011;29774;52.664;5.074;2024-02-21T06:36:45;9.43;;;3.05;;
44110;SDS011;29774;52.664;5.074;2024-02-21T06:39:11;12.88;;;2.83;;
44110;SDS011;29774;52.664;5.074;2024-02-21T06:41:36;12.57;;;3.00;;
44110;SDS011;29774;52.664;5.074;2024-02-21T06:44:02;15.13;;;2.90;;
44110;SDS011;29774;52.664;5.074;2024-02-21T06:46:29;10.80;;;2.92;;
44110;SDS011;29774;52.664;5.074;2024-02-21T06:48:55;11.15;;;3.10;;
44110;SDS011;29774;52.664;5.074;2024-02-21T06:51:21;10.30;;;2.83;;
44110;SDS011;29774;52.664;5.074;2024-02-21T06:53:47;11.65;;;3.00;;
44110;SDS011;29774;52.664;5.074;2024-02-21T06:56:13;10.95;;;2.08;;
44110;SDS011;29774;52.664;5.074;2024-02-21T06:58:39;10.80;;;3.20;;
44110;SDS011;29774;52.664;5.074;2024-02-21T07:01:04;12.73;;;3.10;;
44110;SDS011;29774;52.664;5.074;2024-02-21T07:03:30;7.07;;;2.88;;
44110;SDS011;29774;52.664;5.074;2024-02-21T07:05:55;9.50;;;2.67;;
44110;SDS011;29774;52.664;5.074;2024-02-21T07:08:21;8.73;;;2.88;;
44110;SDS011;29774;52.664;5.074;2024-02-21T07:10:47;7.07;;;2.30;;
44110;SDS011;29774;52.664;5.074;2024-02-21T07:13:12;10.68;;;3.40;;
44110;SDS011;29774;52.664;5.074;2024-02-21T07:15:40;9.07;;;2.67;;
44110;SDS011;29774;52.664;5.074;2024-02-21T07:18:06;6.18;;;2.67;;
44110;SDS011;29774;52.664;5.074;2024-02-21T07:20:32;7.95;;;3.00;;
44110;SDS011;29774;52.664;5.074;2024-02-21T07:22:58;10.48;;;3.13;;
44110;SDS011;29774;52.664;5.074;2024-02-21T07:25:24;9.90;;;3.67;;
44110;SDS011;29774;52.664;5.074;2024-02-21T07:27:50;11.90;;;3.50;;
44110;SDS011;29774;52.664;5.074;2024-02-21T07:30:16;7.75;;;3.53;;
44110;SDS011;29774;52.664;5.074;2024-02-21T07:32:41;7.47;;;2.22;;
44110;SDS011;29774;52.664;5.074;2024-02-21T07:35:07;9.85;;;2.80;;
44110;SDS011;29774;52.664;5.074;2024-02-21T07:37:37;7.60;;;3.72;;
44110;SDS011;29774;52.664;5.074;2024-02-21T07:40:06;8.15;;;3.28;;
44110;SDS011;29774;52.664;5.074;2024-02-21T07:42:37;12.35;;;4.60;;
44110;SDS011;29774;52.664;5.074;2024-02-21T07:45:02;8.77;;;3.47;;
44110;SDS011;29774;52.664;5.074;2024-02-21T07:47:28;9.40;;;4.80;;
44110;SDS011;29774;52.664;5.074;2024-02-21T07:49:54;8.07;;;4.60;;
44110;SDS011;29774;52.664;5.074;2024-02-21T07:52:19;9.60;;;3.83;;
44110;SDS011;29774;52.664;5.074;2024-02-21T07:54:45;8.80;;;4.90;;
44110;SDS011;29774;52.664;5.074;2024-02-21T07:57:11;8.05;;;5.32;;
44110;SDS011;29774;52.664;5.074;2024-02-21T07:59:36;6.47;;;3.45;;
44110;SDS011;29774;52.664;5.074;2024-02-21T08:02:02;7.65;;;5.20;;
44110;SDS011;29774;52.664;5.074;2024-02-21T08:04:31;10.50;;;4.50;;
44110;SDS011;29774;52.664;5.074;2024-02-21T08:06:57;8.38;;;4.18;;
44110;SDS011;29774;52.664;5.074;2024-02-21T08:09:26;9.25;;;5.65;;
44110;SDS011;29774;52.664;5.074;2024-02-21T08:11:52;10.18;;;5.10;;
44110;SDS011;29774;52.664;5.074;2024-02-21T08:14:18;7.20;;;4.47;;
44110;SDS011;29774;52.664;5.074;2024-02-21T08:16:44;7.82;;;4.35;;
44110;SDS011;29774;52.664;5.074;2024-02-21T08:19:10;7.97;;;4.18;;
44110;SDS011;29774;52.664;5.074;2024-02-21T08:21:36;7.10;;;4.20;;
44110;SDS011;29774;52.664;5.074;2024-02-21T08:24:01;10.52;;;4.65;;
44110;SDS011;29774;52.664;5.074;2024-02-21T08:26:27;9.90;;;4.68;;
44110;SDS011;29774;52.664;5.074;2024-02-21T08:28:55;9.63;;;4.07;;
44110;SDS011;29774;52.664;5.074;2024-02-21T08:31:24;7.78;;;4.75;;
44110;SDS011;29774;52.664;5.074;2024-02-21T08:33:56;7.43;;;4.03;;
44110;SDS011;29774;52.664;5.074;2024-02-21T08:36:29;10.68;;;5.03;;
44110;SDS011;29774;52.664;5.074;2024-02-21T08:38:55;8.88;;;5.53;;
44110;SDS011;29774;52.664;5.074;2024-02-21T08:41:22;7.13;;;4.88;;
44110;SDS011;29774;52.664;5.074;2024-02-21T08:43:51;4.93;;;3.78;;
44110;SDS011;29774;52.664;5.074;2024-02-21T08:46:19;6.43;;;4.05;;
44110;SDS011;29774;52.664;5.074;2024-02-21T08:48:46;7.95;;;4.60;;
44110;SDS011;29774;52.664;5.074;2024-02-21T08:51:12;7.32;;;4.32;;
44110;SDS011;29774;52.664;5.074;2024-02-21T08:53:38;9.73;;;4.85;;
44110;SDS011;29774;52.664;5.074;2024-02-21T08:56:04;10.10;;;5.63;;
44110;SDS011;29774;52.664;5.074;2024-02-21T08:58:31;8.05;;;5.45;;
44110;SDS011;29774;52.664;5.074;2024-02-21T09:00:56;7.43;;;5.47;;
44110;SDS011;29774;52.664;5.074;2024-02-21T09:03:22;9.05;;;5.55;;
44110;SDS011;29774;52.664;5.074;2024-02-21T09:05:48;13.07;;;7.05;;
44110;SDS011;29774;52.664;5.074;2024-02-21T09:08:14;8.15;;;5.20;;
44110;SDS011;29774;52.664;5.074;2024-02-21T09:10:40;6.22;;;5.43;;
44110;SDS011;29774;52.664;5.074;2024-02-21T09:13:06;10.95;;;6.35;;
44110;SDS011;29774;52.664;5.074;2024-02-21T09:15:33;8.73;;;4.25;;
44110;SDS011;29774;52.664;5.074;2024-02-21T09:17:59;9.32;;;7.25;;
44110;SDS011;29774;52.664;5.074;2024-02-21T09:20:24;13.88;;;5.93;;
44110;SDS011;29774;52.664;5.074;2024-02-21T09:22:50;9.30;;;6.10;;
44110;SDS011;29774;52.664;5.074;2024-02-21T09:25:17;9.00;;;6.60;;
44110;SDS011;29774;52.664;5.074;2024-02-21T09:27:43;8.93;;;5.80;;
44110;SDS011;29774;52.664;5.074;2024-02-21T09:30:10;6.88;;;5.18;;
44110;SDS011;29774;52.664;5.074;2024-02-21T09:32:36;7.25;;;6.18;;
44110;SDS011;29774;52.664;5.074;2024-02-21T09:35:02;7.65;;;5.45;;
44110;SDS011;29774;52.664;5.074;2024-02-21T09:37:30;9.95;;;6.57;;
44110;SDS011;29774;52.664;5.074;2024-02-21T09:39:56;13.23;;;7.30;;
44110;SDS011;29774;52.664;5.074;2024-02-21T09:42:21;9.43;;;5.75;;
44110;SDS011;29774;52.664;5.074;2024-02-21T09:44:52;12.13;;;6.55;;
44110;SDS011;29774;52.664;5.074;2024-02-21T09:47:31;9.23;;;5.75;;
44110;SDS011;29774;52.664;5.074;2024-02-21T09:50:08;9.95;;;6.47;;
44110;SDS011;29774;52.664;5.074;2024-02-21T09:52:34;12.98;;;6.93;;
44110;SDS011;29774;52.664;5.074;2024-02-21T09:55:01;8.75;;;6.22;;
44110;SDS011;29774;52.664;5.074;2024-02-21T09:57:30;9.25;;;5.85;;
44110;SDS011;29774;52.664;5.074;2024-02-21T09:59:56;10.05;;;6.95;;
44110;SDS011;29774;52.664;5.074;2024-02-21T10:02:24;6.72;;;5.47;;
44110;SDS011;29774;52.664;5.074;2024-02-21T10:04:49;13.77;;;8.00;;
44110;SDS011;29774;52.664;5.074;2024-02-21T10:07:15;10.73;;;5.57;;
44110;SDS011;29774;52.664;5.074;2024-02-21T10:09:41;6.82;;;5.53;;
44110;SDS011;29774;52.664;5.074;2024-02-21T10:12:10;9.48;;;7.30;;
44110;SDS011;29774;52.664;5.074;2024-02-21T10:14:37;7.60;;;5.90;;
44110;SDS011;29774;52.664;5.074;2024-02-21T10:17:02;6.63;;;5.90;;
44110;SDS011;29774;52.664;5.074;2024-02-21T10:19:34;6.80;;;5.68;;
44110;SDS011;29774;52.664;5.074;2024-02-21T10:24:26;10.65;;;6.63;;
44110;SDS011;29774;52.664;5.074;2024-02-21T10:27:02;8.90;;;6.00;;
44110;SDS011;29774;52.664;5.074;2024-02-21T10:29:30;10.43;;;6.03;;
44110;SDS011;29774;52.664;5.074;2024-02-21T10:32:06;11.32;;;8.30;;
44110;SDS011;29774;52.664;5.074;2024-02-21T10:34:33;10.55;;;7.47;;
44110;SDS011;29774;52.664;5.074;2024-02-21T10:37:02;11.20;;;7.05;;
44110;SDS011;29774;52.664;5.074;2024-02-21T10:39:31;8.90;;;6.85;;
44110;SDS011;29774;52.664;5.074;2024-02-21T10:42:02;14.23;;;8.32;;
44110;SDS011;29774;52.664;5.074;2024-02-21T10:44:29;12.63;;;8.90;;
44110;SDS011;29774;52.664;5.074;2024-02-21T10:46:57;8.98;;;6.68;;
44110;SDS011;29774;52.664;5.074;2024-02-21T10:49:23;9.52;;;7.47;;
44110;SDS011;29774;52.664;5.074;2024-02-21T10:51:50;12.50;;;8.45;;
44110;SDS011;29774;52.664;5.074;2024-02-21T10:56:53;10.35;;;7.28;;
44110;SDS011;29774;52.664;5.074;2024-02-21T10:59:21;9.40;;;7.18;;
44110;SDS011;29774;52.664;5.074;2024-02-21T11:01:48;9.73;;;6.65;;
44110;SDS011;29774;52.664;5.074;2024-02-21T11:04:14;15.25;;;7.25;;
44110;SDS011;29774;52.664;5.074;2024-02-21T11:06:40;12.65;;;7.78;;
44110;SDS011;29774;52.664;5.074;2024-02-21T11:09:07;9.80;;;7.68;;
44110;SDS011;29774;52.664;5.074;2024-02-21T11:11:37;12.85;;;8.27;;
44110;SDS011;29774;52.664;5.074;2024-02-21T11:14:20;12.48;;;8.88;;
44110;SDS011;29774;52.664;5.074;2024-02-21T11:16:46;8.32;;;5.78;;
44110;SDS011;29774;52.664;5.074;2024-02-21T11:21:48;10.65;;;7.75;;
44110;SDS011;29774;52.664;5.074;2024-02-21T11:24:28;8.45;;;6.78;;
44110;SDS011;29774;52.664;5.074;2024-02-21T11:26:55;8.85;;;6.47;;
44110;SDS011;29774;52.664;5.074;2024-02-21T11:29:24;9.43;;;6.00;;
44110;SDS011;29774;52.664;5.074;2024-02-21T11:31:51;8.85;;;6.65;;
44110;SDS011;29774;52.664;5.074;2024-02-21T11:34:17;10.75;;;7.05;;
44110;SDS011;29774;52.664;5.074;2024-02-21T11:36:51;10.27;;;7.05;;
44110;SDS011;29774;52.664;5.074;2024-02-21T11:39:18;8.80;;;5.82;;
44110;SDS011;29774;52.664;5.074;2024-02-21T11:42:00;7.22;;;6.03;;
44110;SDS011;29774;52.664;5.074;2024-02-21T11:44:26;10.80;;;6.65;;
44110;SDS011;29774;52.664;5.074;2024-02-21T11:46:52;10.50;;;6.13;;
44110;SDS011;29774;52.664;5.074;2024-02-21T11:49:17;6.38;;;4.88;;
44110;SDS011;29774;52.664;5.074;2024-02-21T11:51:43;8.68;;;6.82;;
44110;SDS011;29774;52.664;5.074;2024-02-21T11:54:08;7.63;;;5.88;;
44110;SDS011;29774;52.664;5.074;2024-02-21T11:56:38;5.57;;;4.13;;
44110;SDS011;29774;52.664;5.074;2024-02-21T11:59:04;9.10;;;5.43;;
44110;SDS011;29774;52.664;5.074;2024-02-21T12:01:31;9.23;;;5.38;;
44110;SDS011;29774;52.664;5.074;2024-02-21T12:03:57;7.25;;;5.00;;
44110;SDS011;29774;52.664;5.074;2024-02-21T12:06:23;5.88;;;5.20;;
44110;SDS011;29774;52.664;5.074;2024-02-21T12:08:48;7.40;;;5.53;;
44110;SDS011;29774;52.664;5.074;2024-02-21T12:11:21;9.32;;;4.88;;
44110;SDS011;29774;52.664;5.074;2024-02-21T12:13:47;5.68;;;4.65;;
44110;SDS011;29774;52.664;5.074;2024-02-21T12:16:29;7.68;;;5.70;;
44110;SDS011;29774;52.664;5.074;2024-02-21T12:18:56;5.82;;;4.95;;
44110;SDS011;29774;52.664;5.074;2024-02-21T12:21:25;7.80;;;5.25;;
44110;SDS011;29774;52.664;5.074;2024-02-21T12:23:59;6.60;;;5.90;;
44110;SDS011;29774;52.664;5.074;2024-02-21T12:26:25;6.50;;;4.45;;
44110;SDS011;29774;52.664;5.074;2024-02-21T12:28:52;6.65;;;4.72;;
44110;SDS011;29774;52.664;5.074;2024-02-21T12:31:18;5.72;;;4.32;;
44110;SDS011;29774;52.664;5.074;2024-02-21T12:33:43;5.68;;;4.57;;
44110;SDS011;29774;52.664;5.074;2024-02-21T12:36:09;4.97;;;4.32;;
44110;SDS011;29774;52.664;5.074;2024-02-21T12:38:35;5.47;;;4.53;;
44110;SDS011;29774;52.664;5.074;2024-02-21T12:41:02;6.80;;;4.60;;
44110;SDS011;29774;52.664;5.074;2024-02-21T12:43:28;5.85;;;5.25;;
44110;SDS011;29774;52.664;5.074;2024-02-21T12:45:54;5.70;;;4.63;;
44110;SDS011;29774;52.664;5.074;2024-02-21T12:48:19;5.85;;;5.13;;
44110;SDS011;29774;52.664;5.074;2024-02-21T12:50:48;5.40;;;4.55;;
44110;SDS011;29774;52.664;5.074;2024-02-21T12:53:18;7.70;;;5.43;;
44110;SDS011;29774;52.664;5.074;2024-02-21T12:55:46;6.45;;;5.75;;
44110;SDS011;29774;52.664;5.074;2024-02-21T12:58:13;5.05;;;4.20;;
44110;SDS011;29774;52.664;5.074;2024-02-21T13:00:40;8.27;;;5.55;;
44110;SDS011;29774;52.664;5.074;2024-02-21T13:03:06;6.57;;;4.13;;
44110;SDS011;29774;52.664;5.074;2024-02-21T13:05:31;6.85;;;6.10;;
44110;SDS011;29774;52.664;5.074;2024-02-21T13:07:57;7.97;;;5.55;;
44110;SDS011;29774;52.664;5.074;2024-02-21T13:10:24;6.78;;;4.90;;
44110;SDS011;29774;52.664;5.074;2024-02-21T13:12:50;9.02;;;5.30;;
44110;SDS011;29774;52.664;5.074;2024-02-21T13:15:16;6.40;;;5.30;;
44110;SDS011;29774;52.664;5.074;2024-02-21T13:17:43;5.40;;;4.57;;
44110;SDS011;29774;52.664;5.074;2024-02-21T13:20:09;5.18;;;4.70;;
44110;SDS011;29774;52.664;5.074;2024-02-21T13:22:36;5.78;;;4.57;;
44110;SDS011;29774;52.664;5.074;2024-02-21T13:25:02;6.95;;;5.53;;
44110;SDS011;29774;52.664;5.074;2024-02-21T13:27:28;4.95;;;4.32;;
44110;SDS011;29774;52.664;5.074;2024-02-21T13:29:54;5.05;;;4.22;;
44110;SDS011;29774;52.664;5.074;2024-02-21T13:32:19;6.65;;;5.72;;
44110;SDS011;29774;52.664;5.074;2024-02-21T13:34:45;4.82;;;3.78;;
44110;SDS011;29774;52.664;5.074;2024-02-21T13:37:11;5.13;;;4.00;;
44110;SDS011;29774;52.664;5.074;2024-02-21T13:39:36;5.78;;;4.32;;
44110;SDS011;29774;52.664;5.074;2024-02-21T13:42:02;5.28;;;3.72;;
44110;SDS011;29774;52.664;5.074;2024-02-21T13:44:30;5.53;;;3.72;;
44110;SDS011;29774;52.664;5.074;2024-02-21T13:46:57;4.28;;;3.78;;
44110;SDS011;29774;52.664;5.074;2024-02-21T13:49:22;4.00;;;3.30;;
44110;SDS011;29774;52.664;5.074;2024-02-21T13:51:48;7.90;;;4.88;;
44110;SDS011;29774;52.664;5.074;2024-02-21T13:54:13;3.95;;;3.58;;
44110;SDS011;29774;52.664;5.074;2024-02-21T13:56:44;6.55;;;4.22;;
44110;SDS011;29774;52.664;5.074;2024-02-21T13:59:12;4.65;;;4.03;;
44110;SDS011;29774;52.664;5.074;2024-02-21T14:01:41;6.57;;;3.78;;
44110;SDS011;29774;52.664;5.074;2024-02-21T14:04:07;8.02;;;4.90;;
44110;SDS011;29774;52.664;5.074;2024-02-21T14:06:33;6.00;;;3.15;;
44110;SDS011;29774;52.664;5.074;2024-02-21T14:08:59;3.97;;;3.20;;
44110;SDS011;29774;52.664;5.074;2024-02-21T14:11:25;4.10;;;3.58;;
44110;SDS011;29774;52.664;5.074;2024-02-21T14:13:51;6.63;;;4.82;;
44110;SDS011;29774;52.664;5.074;2024-02-21T14:16:17;3.85;;;3.40;;
44110;SDS011;29774;52.664;5.074;2024-02-21T14:18:43;6.30;;;4.72;;
44110;SDS011;29774;52.664;5.074;2024-02-21T14:21:09;5.32;;;3.90;;
44110;SDS011;29774;52.664;5.074;2024-02-21T14:23:38;4.93;;;3.40;;
44110;SDS011;29774;52.664;5.074;2024-02-21T14:26:04;5.60;;;3.50;;
44110;SDS011;29774;52.664;5.074;2024-02-21T14:28:31;4.80;;;4.03;;
44110;SDS011;29774;52.664;5.074;2024-02-21T14:30:58;4.35;;;2.88;;
44110;SDS011;29774;52.664;5.074;2024-02-21T14:33:25;5.28;;;3.50;;
44110;SDS011;29774;52.664;5.074;2024-02-21T14:35:52;5.90;;;4.10;;
44110;SDS011;29774;52.664;5.074;2024-02-21T14:38:18;5.15;;;3.03;;
44110;SDS011;29774;52.664;5.074;2024-02-21T14:40:44;5.63;;;3.20;;
44110;SDS011;29774;52.664;5.074;2024-02-21T14:43:10;5.70;;;3.58;;
44110;SDS011;29774;52.664;5.074;2024-02-21T14:45:36;5.60;;;3.65;;